Time;durP1;ratioP1;P1;durP2;ratioP2;P2;SDS_P1;SDS_P2;PMS_P1;PMS_P2;Temp;Humidity;BMP_temperature;BMP_pressure;BME280_temperature;BME280_humidity;BME280_pressure;Samples;Min_cycle;Max_cycle;Signal;HPM_P1;HPM_P2
2022/11/30 00:00:50;;;;;;;;;;;;;;;4.27;100.00;101992.31;2081265;28;31853;-75
2022/11/30 00:01:51;;;;;;;;;;;;;;;4.27;100.00;101990.56;2081254;28;35029;-75
2022/11/30 00:02:56;;;;;;;;;;;;;;;4.26;100.00;101990.53;2072693;28;20068;-75
2022/11/30 00:03:58;;;;;;;;;;;;;;;4.26;100.00;101993.19;2073324;28;34958;-76
2022/11/30 00:05:00;;;;;;;;;;;;;;;4.26;100.00;101999.38;2072291;28;35267;-75
2022/11/30 00:06:11;;;;;;;;;;;;;;;4.25;100.00;102000.22;2072150;28;35621;-75
2022/11/30 00:07:12;;;;;;;;;;;;;;;4.24;100.00;102001.09;2080996;28;41242;-75
2022/11/30 00:08:14;;;;;;;;;;;;;;;4.24;100.00;102000.22;2081249;28;33249;-75
2022/11/30 00:09:16;;;;;;;;;;;;;;;4.24;100.00;101998.47;2081280;28;31524;-75
2022/11/30 00:10:18;;;;;;;;;;;;;;;4.24;100.00;102000.22;2081374;28;37984;-75
2022/11/30 00:11:21;;;;;;;;;;;;;;;4.22;100.00;101994.88;2072433;28;33914;-75
2022/11/30 00:12:22;;;;;;;;;;;;;;;4.23;100.00;101994.00;2072689;28;37915;-75
2022/11/30 00:13:24;;;;;;;;;;;;;;;4.23;100.00;102001.06;2081403;28;31298;-75
2022/11/30 00:14:28;;;;;;;;;;;;;;;4.23;100.00;101998.41;2081585;28;37334;-75
2022/11/30 00:15:29;;;;;;;;;;;;;;;4.25;100.00;102005.53;2081445;28;19925;-75
2022/11/30 00:16:31;;;;;;;;;;;;;;;4.24;100.00;101994.91;2081458;28;28440;-75
2022/11/30 00:17:36;;;;;;;;;;;;;;;4.23;100.00;101993.13;2081907;28;19937;-75
2022/11/30 00:18:38;;;;;;;;;;;;;;;4.24;100.00;102001.09;2081449;28;35117;-75
2022/11/30 00:19:40;;;;;;;;;;;;;;;4.20;100.00;102002.81;2081213;28;37078;-76
2022/11/30 00:20:42;;;;;;;;;;;;;;;4.20;100.00;101996.63;2072353;28;31286;-76
2022/11/30 00:21:43;;;;;;;;;;;;;;;4.19;100.00;102005.41;2072784;28;27782;-75
2022/11/30 00:22:45;;;;;;;;;;;;;;;4.16;100.00;102003.63;2097654;22;32022;-68
2022/11/30 00:23:47;;;;;;;;;;;;;;;4.16;100.00;102008.00;2083120;28;34099;-69
2022/11/30 00:24:48;;;;;;;;;;;;;;;4.15;100.00;102007.13;2081209;28;38404;-68
2022/11/30 00:25:50;;;;;;;;;;;;;;;4.15;100.00;102009.75;2080851;28;35947;-69
2022/11/30 00:26:52;;;;;;;;;;;;;;;4.14;100.00;102009.72;2080791;28;34567;-69
2022/11/30 00:27:53;;;;;;;;;;;;;;;4.13;100.00;102016.78;2072888;28;19926;-69
2022/11/30 00:28:55;;;;;;;;;;;;;;;4.11;100.00;102013.22;2072740;28;28744;-69
2022/11/30 00:29:57;;;;;;;;;;;;;;;4.13;100.00;102013.25;2081176;28;30888;-70
2022/11/30 00:31:00;;;;;;;;;;;;;;;4.13;100.00;102013.25;2081246;28;34671;-68
2022/11/30 00:32:04;;;;;;;;;;;;;;;4.12;100.00;102011.44;2081181;28;31955;-69
2022/11/30 00:33:06;;;;;;;;;;;;;;;4.12;100.00;102007.03;2080789;28;30622;-69
2022/11/30 00:34:07;;;;;;;;;;;;;;;4.12;100.00;102014.09;2080822;28;35100;-69
2022/11/30 00:35:09;;;;;;;;;;;;;;;4.11;100.00;102014.94;2081287;28;34555;-69
2022/11/30 00:36:14;;;;;;;;;;;;;;;4.09;100.00;102014.94;2081196;28;37114;-69
2022/11/30 00:37:15;;;;;;;;;;;;;;;4.11;100.00;102014.94;2081937;28;20888;-69
2022/11/30 00:38:17;;;;;;;;;;;;;;;4.11;100.00;102018.53;2081443;28;29400;-69
2022/11/30 00:39:21;;;;;;;;;;;;;;;4.10;100.00;102013.19;2081776;28;23068;-69
2022/11/30 00:40:23;;;;;;;;;;;;;;;4.09;100.00;102019.34;2081766;28;20012;-69
2022/11/30 00:41:25;;;;;;;;;;;;;;;4.06;100.00;102021.94;2081126;28;36030;-69
2022/11/30 00:42:26;;;;;;;;;;;;;;;4.07;100.00;102015.75;2081032;28;29390;-69
2022/11/30 00:43:31;;;;;;;;;;;;;;;4.04;100.00;102016.59;2081437;28;19973;-70
2022/11/30 00:44:32;;;;;;;;;;;;;;;4.03;100.00;102012.16;2081750;28;20831;-69
2022/11/30 00:45:34;;;;;;;;;;;;;;;4.03;100.00;102012.16;2081087;28;30814;-69
2022/11/30 00:46:35;;;;;;;;;;;;;;;4.00;100.00;102006.78;2081219;28;24210;-69
2022/11/30 00:47:37;;;;;;;;;;;;;;;4.03;100.00;102012.16;2081808;28;20259;-69
2022/11/30 00:48:40;;;;;;;;;;;;;;;4.03;100.00;102012.16;2081380;28;20011;-69
2022/11/30 00:49:42;;;;;;;;;;;;;;;4.03;100.00;102004.19;2081220;28;36625;-69
2022/11/30 00:50:43;;;;;;;;;;;;;;;4.03;100.00;102009.50;2081286;28;29155;-69
2022/11/30 00:51:46;;;;;;;;;;;;;;;4.03;100.00;102009.50;2080856;28;34861;-69
2022/11/30 00:52:47;;;;;;;;;;;;;;;4.02;100.00;102007.72;2081718;28;20043;-69
2022/11/30 00:53:50;;;;;;;;;;;;;;;4.03;100.00;102005.97;2082813;28;35636;-69
2022/11/30 00:54:51;;;;;;;;;;;;;;;4.03;100.00;102012.16;2082488;28;33796;-69
2022/11/30 00:55:53;;;;;;;;;;;;;;;4.02;100.00;102005.09;2081539;28;29295;-69
2022/11/30 00:56:54;;;;;;;;;;;;;;;4.05;100.00;102014.84;2081051;28;34570;-69
2022/11/30 00:57:56;;;;;;;;;;;;;;;4.03;100.00;102003.31;2080927;28;35347;-69
2022/11/30 00:58:57;;;;;;;;;;;;;;;4.03;100.00;102008.63;2081341;28;36378;-69
2022/11/30 00:59:59;;;;;;;;;;;;;;;4.01;100.00;102009.47;2080846;28;37020;-69
2022/11/30 01:01:01;;;;;;;;;;;;;;;4.01;100.00;102014.75;2081533;28;19926;-70
2022/11/30 01:02:02;;;;;;;;;;;;;;;4.01;100.00;102016.53;2081180;28;40688;-69
2022/11/30 01:03:04;;;;;;;;;;;;;;;4.00;100.00;102023.59;2080220;28;36333;-69
2022/11/30 01:04:06;;;;;;;;;;;;;;;4.00;100.00;102025.31;2080903;28;25098;-69
2022/11/30 01:05:10;;;;;;;;;;;;;;;3.99;100.00;102020.91;2081485;28;19984;-69
2022/11/30 01:06:12;;;;;;;;;;;;;;;4.00;100.00;102013.00;2081721;28;19926;-69
2022/11/30 01:07:13;;;;;;;;;;;;;;;4.01;100.00;102025.38;2081338;28;19921;-67
2022/11/30 01:08:15;;;;;;;;;;;;;;;4.00;100.00;102014.72;2081296;28;29631;-69
2022/11/30 01:09:16;;;;;;;;;;;;;;;3.96;100.00;102018.19;2081232;28;20757;-69
2022/11/30 01:10:18;;;;;;;;;;;;;;;3.98;100.00;102013.81;2081181;28;35286;-69
2022/11/30 01:11:23;;;;;;;;;;;;;;;3.98;100.00;102022.66;2080904;28;31350;-67
2022/11/30 01:12:24;;;;;;;;;;;;;;;3.99;100.00;102026.22;2080894;28;30225;-69
2022/11/30 01:13:26;;;;;;;;;;;;;;;3.96;100.00;102016.41;2080416;28;36519;-69
2022/11/30 01:14:27;;;;;;;;;;;;;;;3.97;100.00;102022.63;2081361;28;30100;-69
2022/11/30 01:15:30;;;;;;;;;;;;;;;3.96;100.00;102016.41;2080528;28;36049;-68
2022/11/30 01:16:32;;;;;;;;;;;;;;;3.97;100.00;102025.28;2080783;28;40070;-69
2022/11/30 01:17:34;;;;;;;;;;;;;;;3.96;100.00;102029.66;2080917;28;28150;-69
2022/11/30 01:18:38;;;;;;;;;;;;;;;3.95;100.00;102021.72;2080975;28;29796;-69
2022/11/30 01:19:39;;;;;;;;;;;;;;;3.94;100.00;102022.56;2080756;28;33131;-69
2022/11/30 01:20:42;;;;;;;;;;;;;;;3.93;100.00;102020.75;2081244;28;29555;-69
2022/11/30 01:21:43;;;;;;;;;;;;;;;3.94;100.00;102018.13;2080758;28;34854;-69
2022/11/30 01:22:45;;;;;;;;;;;;;;;3.96;100.00;102027.00;2080161;28;36162;-68
2022/11/30 01:23:47;;;;;;;;;;;;;;;3.94;100.00;102020.78;2080022;28;38014;-69
2022/11/30 01:24:48;;;;;;;;;;;;;;;3.95;100.00;102027.00;2081344;28;35861;-69
2022/11/30 01:25:54;;;;;;;;;;;;;;;3.93;100.00;102024.31;2081406;28;20003;-69
2022/11/30 01:26:55;;;;;;;;;;;;;;;3.94;100.00;102025.22;2081000;28;33181;-69
2022/11/30 01:27:57;;;;;;;;;;;;;;;3.96;100.00;102026.13;2081036;28;28519;-69
2022/11/30 01:29:01;;;;;;;;;;;;;;;3.94;100.00;102027.84;2081409;28;20169;-69
2022/11/30 01:30:04;;;;;;;;;;;;;;;3.93;100.00;102026.97;2081077;28;32819;-69
2022/11/30 01:31:08;;;;;;;;;;;;;;;3.92;100.00;102024.28;2081572;28;19934;-69
2022/11/30 01:32:12;;;;;;;;;;;;;;;3.92;100.00;102025.16;2081439;28;19925;-70
2022/11/30 01:33:14;;;;;;;;;;;;;;;3.92;100.00;102024.28;2081473;28;19926;-70
2022/11/30 01:34:15;;;;;;;;;;;;;;;3.92;100.00;102033.13;2081216;28;19929;-69
2022/11/30 01:35:17;;;;;;;;;;;;;;;3.92;100.00;102025.16;2080466;28;38871;-70
2022/11/30 01:36:26;;;;;;;;;;;;;;;3.93;100.00;102016.38;2080957;28;28528;-69
2022/11/30 01:37:29;;;;;;;;;;;;;;;3.93;100.00;102026.06;2081790;28;20904;-69
2022/11/30 01:38:32;;;;;;;;;;;;;;;3.93;100.00;102019.03;2080600;28;36678;-69
2022/11/30 01:39:34;;;;;;;;;;;;;;;3.92;100.00;102021.63;2081414;28;19930;-68
2022/11/30 01:40:35;;;;;;;;;;;;;;;3.92;100.00;102016.34;2080533;28;34017;-69
2022/11/30 01:41:37;;;;;;;;;;;;;;;3.93;100.00;102020.75;2080539;28;36466;-68
2022/11/30 01:42:45;;;;;;;;;;;;;;;3.91;100.00;102027.78;2080371;28;38612;-69
2022/11/30 01:43:52;;;;;;;;;;;;;;;3.89;100.00;102022.44;2081544;28;36803;-66
2022/11/30 01:44:55;;;;;;;;;;;;;;;3.90;100.00;102020.72;2080885;28;35461;-69
2022/11/30 01:45:57;;;;;;;;;;;;;;;3.89;100.00;102029.50;2080526;28;32126;-69
2022/11/30 01:47:02;;;;;;;;;;;;;;;3.90;100.00;102033.97;2081096;28;22246;-69
2022/11/30 01:48:06;;;;;;;;;;;;;;;3.90;100.00;102026.00;2081598;28;19928;-69
2022/11/30 01:49:08;;;;;;;;;;;;;;;3.90;100.00;102026.91;2080597;28;39861;-69
2022/11/30 01:50:22;;;;;;;;;;;;;;;3.89;100.00;102030.38;2081549;28;20131;-68
2022/11/30 01:51:28;;;;;;;;;;;;;;;3.87;100.00;102024.16;2081400;28;20683;-69
2022/11/30 01:52:36;;;;;;;;;;;;;;;3.88;100.00;102028.63;2080943;28;29206;-70
2022/11/30 01:53:37;;;;;;;;;;;;;;;3.89;100.00;102029.50;2080929;28;34402;-69
2022/11/30 01:54:50;;;;;;;;;;;;;;;3.89;100.00;102025.09;2080706;28;37805;-69
2022/11/30 01:55:52;;;;;;;;;;;;;;;3.89;100.00;102024.22;2080512;28;29880;-70
2022/11/30 01:56:58;;;;;;;;;;;;;;;3.88;100.00;102023.31;2081111;28;19936;-70
2022/11/30 01:58:05;;;;;;;;;;;;;;;3.88;100.00;102023.31;2080709;28;33482;-70
2022/11/30 01:59:07;;;;;;;;;;;;;;;3.90;100.00;102020.72;2080080;28;32395;-69
2022/11/30 02:00:12;;;;;;;;;;;;;;;3.90;100.00;102020.72;2081642;28;19921;-69
2022/11/30 02:01:19;;;;;;;;;;;;;;;3.88;100.00;102023.31;2080817;28;20013;-70
2022/11/30 02:02:33;;;;;;;;;;;;;;;3.88;100.00;102027.72;2081025;28;30271;-70
2022/11/30 02:03:42;;;;;;;;;;;;;;;3.89;100.00;102019.78;2080539;28;34694;-70
2022/11/30 02:04:44;;;;;;;;;;;;;;;3.88;100.00;102030.38;2080719;28;36781;-69
2022/11/30 02:05:48;;;;;;;;;;;;;;;3.87;100.00;102032.13;2080466;28;32427;-70
2022/11/30 02:06:50;;;;;;;;;;;;;;;3.85;100.00;102023.25;2080791;28;39016;-70
2022/11/30 02:07:52;;;;;;;;;;;;;;;3.85;100.00;102022.34;2080358;28;34763;-70
2022/11/30 02:08:54;;;;;;;;;;;;;;;3.87;100.00;102023.28;2081373;28;19926;-69
2022/11/30 02:09:56;;;;;;;;;;;;;;;3.89;100.00;102024.22;2080373;28;33083;-69
2022/11/30 02:11:01;;;;;;;;;;;;;;;3.87;100.00;102020.63;2080533;28;37281;-71
2022/11/30 02:12:07;;;;;;;;;;;;;;;3.89;100.00;102029.50;2081372;28;19925;-70
2022/11/30 02:13:33;;;;;;;;;;;;;;;3.86;100.00;102025.03;2080507;28;31598;-69
2022/11/30 02:14:44;;;;;;;;;;;;;;;3.83;100.00;102030.28;2081167;28;19937;-70
2022/11/30 02:16:11;;;;;;;;;;;;;;;3.82;100.00;102028.47;2078986;28;38129;-70
2022/11/30 02:17:31;;;;;;;;;;;;;;;3.85;100.00;102030.31;2081047;28;19933;-70
2022/11/30 02:18:36;;;;;;;;;;;;;;;3.82;100.00;102029.38;2081078;28;31370;-70
2022/11/30 02:20:08;;;;;;;;;;;;;;;3.81;100.00;102035.53;2080286;28;27809;-70
2022/11/30 02:21:51;;;;;;;;;;;;;;;3.83;100.00;102032.91;2080893;28;32077;-70
2022/11/30 02:23:20;;;;;;;;;;;;;;;3.84;100.00;102032.06;2080375;28;24478;-69
2022/11/30 02:24:34;;;;;;;;;;;;;;;3.83;100.00;102025.84;2080454;28;34738;-70
2022/11/30 02:25:45;;;;;;;;;;;;;;;3.83;100.00;102028.50;2080822;28;30324;-70
2022/11/30 02:27:13;;;;;;;;;;;;;;;3.83;100.00;102031.16;2081045;28;19932;-70
2022/11/30 02:28:40;;;;;;;;;;;;;;;3.82;100.00;102039.06;2080367;28;34653;-69
2022/11/30 02:29:51;;;;;;;;;;;;;;;3.82;100.00;102029.38;2080350;28;34030;-70
2022/11/30 02:30:58;;;;;;;;;;;;;;;3.81;100.00;102032.88;2080015;28;33667;-70
2022/11/30 02:32:20;;;;;;;;;;;;;;;3.81;100.00;102035.53;2071681;28;34862;-70
2022/11/30 02:33:28;;;;;;;;;;;;;;;3.80;100.00;102035.47;2075575;28;32582;-68
2022/11/30 02:34:32;;;;;;;;;;;;;;;3.78;100.00;102035.44;2080455;28;32797;-70
2022/11/30 02:35:41;;;;;;;;;;;;;;;3.79;100.00;102039.91;2080501;28;31650;-68
2022/11/30 02:36:44;;;;;;;;;;;;;;;3.80;100.00;102036.41;2080328;28;32185;-70
2022/11/30 02:37:47;;;;;;;;;;;;;;;3.79;100.00;102031.06;2079612;28;40019;-69
2022/11/30 02:38:50;;;;;;;;;;;;;;;3.80;100.00;102035.47;2079570;28;37242;-70
2022/11/30 02:39:52;;;;;;;;;;;;;;;3.80;100.00;102040.78;2080753;28;19933;-70
2022/11/30 02:40:54;;;;;;;;;;;;;;;3.78;100.00;102032.78;2080432;28;31463;-70
2022/11/30 02:41:55;;;;;;;;;;;;;;;3.78;100.00;102034.56;2080529;28;36145;-70
2022/11/30 02:43:03;;;;;;;;;;;;;;;3.76;100.00;102029.22;2080197;28;32040;-70
2022/11/30 02:44:06;;;;;;;;;;;;;;;3.79;100.00;102036.38;2080496;28;38885;-70
2022/11/30 02:45:08;;;;;;;;;;;;;;;3.79;100.00;102039.00;2079585;28;28764;-69
2022/11/30 02:47:44;;;;;;;;;;;;;;;3.79;100.00;102039.91;2088066;28;37112;-70
2022/11/30 02:48:55;;;;;;;;;;;;;;;3.77;100.00;102041.63;2088553;28;37303;-70
2022/11/30 02:50:07;;;;;;;;;;;;;;;3.77;100.00;102041.63;2088101;28;39214;-70
2022/11/30 02:51:16;;;;;;;;;;;;;;;3.79;100.00;102039.91;2089175;28;19929;-70
2022/11/30 02:52:21;;;;;;;;;;;;;;;3.79;100.00;102039.00;2088540;28;35410;-70
2022/11/30 02:53:23;;;;;;;;;;;;;;;3.79;100.00;102045.19;2078692;28;36434;-70
2022/11/30 02:54:24;;;;;;;;;;;;;;;3.82;100.00;102039.97;2079903;28;38497;-70
2022/11/30 02:55:27;;;;;;;;;;;;;;;3.80;100.00;102046.09;2087446;28;33393;-70
2022/11/30 02:56:29;;;;;;;;;;;;;;;3.80;100.00;102047.00;2088790;28;33627;-70
2022/11/30 02:57:31;;;;;;;;;;;;;;;3.79;100.00;102042.56;2088884;28;29434;-70
2022/11/30 02:58:33;;;;;;;;;;;;;;;3.77;100.00;102044.28;2088965;28;19933;-70
2022/11/30 02:59:35;;;;;;;;;;;;;;;3.79;100.00;102047.84;2088514;28;32138;-70
2022/11/30 03:00:36;;;;;;;;;;;;;;;3.77;100.00;102046.91;2087921;28;30633;-68
2022/11/30 03:01:38;;;;;;;;;;;;;;;3.79;100.00;102047.84;2088195;28;34264;-70
2022/11/30 03:02:40;;;;;;;;;;;;;;;3.78;100.00;102045.16;2088516;28;36917;-69
2022/11/30 03:03:43;;;;;;;;;;;;;;;3.79;100.00;102050.50;2088100;28;33512;-70
2022/11/30 03:04:46;;;;;;;;;;;;;;;3.79;100.00;102045.19;2089067;28;19929;-70
2022/11/30 03:05:47;;;;;;;;;;;;;;;3.80;100.00;102047.00;2088359;28;32789;-70
2022/11/30 03:06:49;;;;;;;;;;;;;;;3.81;100.00;102053.19;2088732;28;32378;-70
2022/11/30 03:07:50;;;;;;;;;;;;;;;3.78;100.00;102050.44;2088467;28;34453;-70
2022/11/30 03:08:52;;;;;;;;;;;;;;;3.79;100.00;102047.84;2088694;28;34823;-70
2022/11/30 03:09:54;;;;;;;;;;;;;;;3.77;100.00;102041.63;2088333;28;35610;-70
2022/11/30 03:10:58;;;;;;;;;;;;;;;3.79;100.00;102050.50;2089088;28;19941;-70
2022/11/30 03:11:59;;;;;;;;;;;;;;;3.78;100.00;102054.00;2088009;28;39709;-70
2022/11/30 03:13:01;;;;;;;;;;;;;;;3.77;100.00;102052.22;2088514;28;33237;-70
2022/11/30 03:14:03;;;;;;;;;;;;;;;3.79;100.00;102055.78;2088306;28;33269;-70
2022/11/30 03:15:05;;;;;;;;;;;;;;;3.78;100.00;102053.09;2096003;28;34551;-70
2022/11/30 03:16:08;;;;;;;;;;;;;;;3.76;100.00;102054.81;2096368;28;19929;-70
2022/11/30 03:17:10;;;;;;;;;;;;;;;3.76;100.00;102054.81;2096950;28;35335;-70
2022/11/30 03:18:12;;;;;;;;;;;;;;;3.75;100.00;102063.63;2098899;28;37400;-70
2022/11/30 03:19:14;;;;;;;;;;;;;;;3.74;100.00;102062.72;2097534;28;19947;-69
2022/11/30 03:20:16;;;;;;;;;;;;;;;3.76;100.00;102057.47;2095883;28;35295;-70
2022/11/30 03:21:17;;;;;;;;;;;;;;;3.77;100.00;102065.47;2096633;28;33380;-70
2022/11/30 03:22:19;;;;;;;;;;;;;;;3.79;100.00;102070.81;2097336;28;19917;-70
2022/11/30 03:23:20;;;;;;;;;;;;;;;3.77;100.00;102062.81;2096774;28;33648;-70
2022/11/30 03:24:22;;;;;;;;;;;;;;;3.77;100.00;102069.88;2096448;28;31703;-69
2022/11/30 03:25:26;;;;;;;;;;;;;;;3.78;100.00;102063.69;2096851;28;29515;-69
2022/11/30 03:26:27;;;;;;;;;;;;;;;3.76;100.00;102066.31;2096163;28;35300;-69
2022/11/30 03:27:32;;;;;;;;;;;;;;;3.74;100.00;102070.69;2098774;28;19959;-69
2022/11/30 03:28:36;;;;;;;;;;;;;;;3.75;100.00;102068.91;2097853;28;40521;-69
2022/11/30 03:29:38;;;;;;;;;;;;;;;3.73;100.00;102068.00;2098535;28;19925;-69
2022/11/30 03:30:42;;;;;;;;;;;;;;;3.74;100.00;102065.38;2097457;28;39393;-69
2022/11/30 03:31:48;;;;;;;;;;;;;;;3.75;100.00;102069.84;2098457;28;31363;-69
2022/11/30 03:32:51;;;;;;;;;;;;;;;3.75;100.00;102064.53;2097854;28;36604;-68
2022/11/30 03:33:52;;;;;;;;;;;;;;;3.74;100.00;102067.16;2098257;28;33052;-69
2022/11/30 03:34:54;;;;;;;;;;;;;;;3.74;100.00;102070.69;2098968;28;19924;-69
2022/11/30 03:36:01;;;;;;;;;;;;;;;3.75;100.00;102064.53;2098201;28;38428;-70
2022/11/30 03:37:05;;;;;;;;;;;;;;;3.74;100.00;102062.72;2097813;28;31049;-70
2022/11/30 03:38:06;;;;;;;;;;;;;;;3.74;100.00;102070.69;2097821;28;38229;-70
2022/11/30 03:39:08;;;;;;;;;;;;;;;3.74;100.00;102073.31;2097388;28;39178;-70
2022/11/30 03:40:10;;;;;;;;;;;;;;;3.72;100.00;102064.47;2097832;28;38583;-70
2022/11/30 03:41:17;;;;;;;;;;;;;;;3.75;100.00;102075.13;2098142;28;23568;-70
2022/11/30 03:42:21;;;;;;;;;;;;;;;3.75;100.00;102074.22;2098137;28;34597;-70
2022/11/30 03:43:23;;;;;;;;;;;;;;;3.75;100.00;102069.84;2097933;28;33248;-70
2022/11/30 03:44:24;;;;;;;;;;;;;;;3.75;100.00;102071.56;2098190;28;35795;-70
2022/11/30 03:45:28;;;;;;;;;;;;;;;3.75;100.00;102075.13;2098627;28;19929;-70
2022/11/30 03:46:30;;;;;;;;;;;;;;;3.75;100.00;102074.22;2098122;28;31177;-70
2022/11/30 03:47:31;;;;;;;;;;;;;;;3.75;100.00;102075.13;2097817;28;37268;-70
2022/11/30 03:48:35;;;;;;;;;;;;;;;3.74;100.00;102075.09;2089823;28;20750;-70
2022/11/30 03:49:36;;;;;;;;;;;;;;;3.74;100.00;102078.63;2089151;28;32660;-70
2022/11/30 03:50:38;;;;;;;;;;;;;;;3.74;100.00;102080.38;2097755;28;39610;-70
2022/11/30 03:51:39;;;;;;;;;;;;;;;3.72;100.00;102075.06;2097984;28;31629;-70
2022/11/30 03:52:43;;;;;;;;;;;;;;;3.72;100.00;102080.34;2097859;28;34765;-70
2022/11/30 03:53:45;;;;;;;;;;;;;;;3.71;100.00;102083.84;2097722;28;35803;-70
2022/11/30 03:54:46;;;;;;;;;;;;;;;3.74;100.00;102078.63;2098309;28;33452;-70
2022/11/30 03:55:57;;;;;;;;;;;;;;;3.74;100.00;102083.03;2097648;28;32955;-70
2022/11/30 03:56:58;;;;;;;;;;;;;;;3.72;100.00;102085.66;2098539;28;31802;-70
2022/11/30 03:58:00;;;;;;;;;;;;;;;3.73;100.00;102084.81;2097611;28;38314;-70
2022/11/30 03:59:02;;;;;;;;;;;;;;;3.72;100.00;102084.75;2098034;28;34296;-70
2022/11/30 04:00:05;;;;;;;;;;;;;;;3.73;100.00;102086.53;2097843;28;38321;-70
2022/11/30 04:01:15;;;;;;;;;;;;;;;3.72;100.00;102087.41;2097969;28;20932;-70
2022/11/30 04:02:16;;;;;;;;;;;;;;;3.72;100.00;102083.00;2097648;28;30972;-70
2022/11/30 04:03:18;;;;;;;;;;;;;;;3.73;100.00;102092.75;2097301;28;41411;-69
2022/11/30 04:04:20;;;;;;;;;;;;;;;3.72;100.00;102090.94;2099019;28;20067;-70
2022/11/30 04:05:21;;;;;;;;;;;;;;;3.72;100.00;102096.25;2098309;28;32681;-69
2022/11/30 04:06:23;;;;;;;;;;;;;;;3.71;100.00;102094.44;2097756;28;32559;-70
2022/11/30 04:07:25;;;;;;;;;;;;;;;3.70;100.00;102087.38;2097011;28;34380;-69
2022/11/30 04:08:27;;;;;;;;;;;;;;;3.69;100.00;102093.50;2097586;28;30959;-70
2022/11/30 04:09:29;;;;;;;;;;;;;;;3.70;100.00;102097.97;2098253;28;34394;-70
2022/11/30 04:10:30;;;;;;;;;;;;;;;3.71;100.00;102098.84;2098011;28;31000;-70
2022/11/30 04:11:32;;;;;;;;;;;;;;;3.68;100.00;102099.69;2097712;28;33251;-70
2022/11/30 04:12:33;;;;;;;;;;;;;;;3.69;100.00;102109.41;2097948;28;28648;-70
2022/11/30 04:13:36;;;;;;;;;;;;;;;3.70;100.00;102100.59;2097409;28;34627;-70
2022/11/30 04:14:40;;;;;;;;;;;;;;;3.70;100.00;102099.72;2096516;28;34879;-69
2022/11/30 04:15:46;;;;;;;;;;;;;;;3.70;100.00;102105.03;2097510;28;38295;-70
2022/11/30 04:16:47;;;;;;;;;;;;;;;3.71;100.00;102102.38;2097074;28;36410;-70
2022/11/30 04:17:49;;;;;;;;;;;;;;;3.70;100.00;102103.25;2098158;28;35184;-70
2022/11/30 04:18:53;;;;;;;;;;;;;;;3.72;100.00;102106.84;2097413;28;38781;-70
2022/11/30 04:19:54;;;;;;;;;;;;;;;3.72;100.00;102100.66;2098010;28;36018;-70
2022/11/30 04:21:00;;;;;;;;;;;;;;;3.72;100.00;102105.94;2097606;28;38860;-70
2022/11/30 04:22:02;;;;;;;;;;;;;;;3.71;100.00;102096.19;2098119;28;36334;-70
2022/11/30 04:23:03;;;;;;;;;;;;;;;3.70;100.00;102102.38;2097567;28;28257;-70
2022/11/30 04:24:08;;;;;;;;;;;;;;;3.71;100.00;102097.09;2098222;28;19975;-69
2022/11/30 04:25:09;;;;;;;;;;;;;;;3.72;100.00;102105.94;2097734;28;37726;-70
2022/11/30 04:26:15;;;;;;;;;;;;;;;3.70;100.00;102105.91;2098210;28;20913;-69
2022/11/30 04:27:16;;;;;;;;;;;;;;;3.71;100.00;102101.50;2097541;28;20801;-69
2022/11/30 04:28:18;;;;;;;;;;;;;;;3.72;100.00;102103.31;2097986;28;34556;-69
2022/11/30 04:29:20;;;;;;;;;;;;;;;3.73;100.00;102100.69;2097799;28;34354;-70
2022/11/30 04:30:21;;;;;;;;;;;;;;;3.71;100.00;102105.03;2098696;28;19935;-70
2022/11/30 04:31:23;;;;;;;;;;;;;;;3.72;100.00;102105.94;2097481;28;34690;-69
2022/11/30 04:32:24;;;;;;;;;;;;;;;3.71;100.00;102107.69;2097874;28;36556;-70
2022/11/30 04:33:27;;;;;;;;;;;;;;;3.70;100.00;102108.56;2097461;28;38878;-70
2022/11/30 04:34:30;;;;;;;;;;;;;;;3.70;100.00;102108.56;2097673;28;37588;-70
2022/11/30 04:35:32;;;;;;;;;;;;;;;3.71;100.00;102110.31;2097378;28;37530;-70
2022/11/30 04:36:34;;;;;;;;;;;;;;;3.72;100.00;102111.25;2096915;28;36584;-69
2022/11/30 04:37:36;;;;;;;;;;;;;;;3.72;100.00;102111.25;2097260;28;38765;-70
2022/11/30 04:38:37;;;;;;;;;;;;;;;3.73;100.00;102110.38;2097090;28;19928;-70
2022/11/30 04:39:39;;;;;;;;;;;;;;;3.73;100.00;102113.94;2097627;28;34340;-69
2022/11/30 04:40:42;;;;;;;;;;;;;;;3.72;100.00;102109.47;2098126;28;31670;-69
2022/11/30 04:41:43;;;;;;;;;;;;;;;3.73;100.00;102108.63;2097397;28;28576;-70
2022/11/30 04:42:45;;;;;;;;;;;;;;;3.71;100.00;102107.69;2097715;28;38144;-70
2022/11/30 04:43:46;;;;;;;;;;;;;;;3.70;100.00;102100.59;2098050;28;19928;-69
2022/11/30 04:44:48;;;;;;;;;;;;;;;3.71;100.00;102105.03;2097556;28;35596;-69
2022/11/30 04:45:52;;;;;;;;;;;;;;;3.71;100.00;102105.03;2097068;28;36419;-69
2022/11/30 04:46:53;;;;;;;;;;;;;;;3.73;100.00;102115.66;2097921;28;31212;-70
2022/11/30 04:47:57;;;;;;;;;;;;;;;3.72;100.00;102109.47;2098542;28;19929;-69
2022/11/30 04:49:01;;;;;;;;;;;;;;;3.73;100.00;102102.44;2098406;28;19921;-69
2022/11/30 04:50:04;;;;;;;;;;;;;;;3.73;100.00;102107.72;2097464;28;30777;-69
2022/11/30 04:51:08;;;;;;;;;;;;;;;3.72;100.00;102109.47;2097763;28;32698;-69
2022/11/30 04:52:10;;;;;;;;;;;;;;;3.73;100.00;102113.03;2098131;28;19994;-69
2022/11/30 04:53:11;;;;;;;;;;;;;;;3.71;100.00;102112.97;2098046;28;32401;-69
2022/11/30 04:54:13;;;;;;;;;;;;;;;3.71;100.00;102107.69;2097339;28;35129;-69
2022/11/30 04:55:18;;;;;;;;;;;;;;;3.70;100.00;102107.66;2098530;28;19932;-69
2022/11/30 04:56:19;;;;;;;;;;;;;;;3.71;100.00;102110.31;2097116;28;39526;-69
2022/11/30 04:57:22;;;;;;;;;;;;;;;3.71;100.00;102110.31;2098578;28;19925;-69
2022/11/30 04:58:24;;;;;;;;;;;;;;;3.72;100.00;102108.59;2097625;28;32854;-69
2022/11/30 04:59:25;;;;;;;;;;;;;;;3.71;100.00;102110.31;2097572;28;41017;-69
2022/11/30 05:00:27;;;;;;;;;;;;;;;3.71;100.00;102110.31;2098184;28;20806;-69
2022/11/30 05:01:29;;;;;;;;;;;;;;;3.73;100.00;102107.72;2097154;28;39296;-69
2022/11/30 05:02:30;;;;;;;;;;;;;;;3.71;100.00;102107.69;2097546;28;31794;-69
2022/11/30 05:03:32;;;;;;;;;;;;;;;3.73;100.00;102111.28;2097361;28;35940;-69
2022/11/30 05:04:33;;;;;;;;;;;;;;;3.73;100.00;102108.63;2096314;28;32834;-69
2022/11/30 05:05:35;;;;;;;;;;;;;;;3.72;100.00;102109.47;2091574;28;30177;-69
2022/11/30 05:06:37;;;;;;;;;;;;;;;3.71;100.00;102110.31;2089032;28;32053;-69
2022/11/30 05:07:39;;;;;;;;;;;;;;;3.71;100.00;102105.03;2089110;28;40879;-70
2022/11/30 05:08:41;;;;;;;;;;;;;;;3.72;100.00;102108.59;2089467;28;20670;-69
2022/11/30 05:09:42;;;;;;;;;;;;;;;3.71;100.00;102110.31;2089179;28;35536;-69
2022/11/30 05:10:50;;;;;;;;;;;;;;;3.71;100.00;102105.03;2090227;28;19933;-69
2022/11/30 05:11:53;;;;;;;;;;;;;;;3.71;100.00;102115.63;2091291;28;20778;-70
2022/11/30 05:12:55;;;;;;;;;;;;;;;3.72;100.00;102105.94;2097149;28;38781;-70
2022/11/30 05:13:57;;;;;;;;;;;;;;;3.72;100.00;102114.78;2097477;28;27191;-68
2022/11/30 05:14:58;;;;;;;;;;;;;;;3.72;100.00;102113.91;2097248;28;32168;-70
2022/11/30 05:16:00;;;;;;;;;;;;;;;3.73;100.00;102119.22;2097486;28;39868;-70
2022/11/30 05:17:02;;;;;;;;;;;;;;;3.74;100.00;102117.47;2097331;28;35168;-69
2022/11/30 05:18:03;;;;;;;;;;;;;;;3.75;100.00;102121.91;2097764;28;32332;-70
2022/11/30 05:19:05;;;;;;;;;;;;;;;3.74;100.00;102118.34;2097541;28;32215;-70
2022/11/30 05:20:07;;;;;;;;;;;;;;;3.74;100.00;102109.53;2098113;28;19928;-68
2022/11/30 05:21:08;;;;;;;;;;;;;;;3.74;100.00;102118.34;2097269;28;33950;-70
2022/11/30 05:22:10;;;;;;;;;;;;;;;3.74;100.00;102117.47;2098306;28;20047;-70
2022/11/30 05:23:12;;;;;;;;;;;;;;;3.75;100.00;102114.88;2097469;28;34616;-70
2022/11/30 05:24:14;;;;;;;;;;;;;;;3.76;100.00;102118.41;2098118;28;19925;-69
2022/11/30 05:25:15;;;;;;;;;;;;;;;3.75;100.00;102122.81;2098362;28;19932;-70
2022/11/30 05:26:17;;;;;;;;;;;;;;;3.76;100.00;102123.69;2097388;28;35835;-70
2022/11/30 05:27:18;;;;;;;;;;;;;;;3.74;100.00;102121.00;2097177;28;31655;-69
2022/11/30 05:28:23;;;;;;;;;;;;;;;3.74;100.00;102121.00;2096486;28;19932;-70